createdAt,value
2023-04-11T00:01:16.358Z,100028.46
2023-04-11T00:03:47.023Z,100037.33
2023-04-11T00:06:27.594Z,100030.34
2023-04-11T00:08:58.236Z,100033.02
2023-04-11T00:11:29.114Z,100033.28
2023-04-11T00:14:02.224Z,100032.86
2023-04-11T00:16:34.550Z,100038.48
2023-04-11T00:19:09.545Z,100047.20
2023-04-11T00:21:49.302Z,100059.66
2023-04-11T00:24:19.696Z,100050.57
2023-04-11T00:27:10.460Z,100037.75
2023-04-11T00:29:41.487Z,100042.36
2023-04-11T00:32:25.752Z,100041.30
2023-04-11T00:34:59.204Z,100038.37
2023-04-11T00:37:36.421Z,100032.27
2023-04-11T00:40:12.302Z,100033.09
2023-04-11T00:42:42.853Z,100032.11
2023-04-11T00:45:14.984Z,100041.71
2023-04-11T00:47:48.264Z,100059.72
2023-04-11T00:50:25.111Z,100056.69
2023-04-11T00:52:58.011Z,100043.75
2023-04-11T00:55:28.769Z,100040.70
2023-04-11T00:58:09.977Z,100024.48
2023-04-11T01:00:51.616Z,100020.98
2023-04-11T01:03:25.727Z,100014.11
2023-04-11T01:05:57.009Z,100010.73
2023-04-11T01:08:31.279Z,100011.61
2023-04-11T01:11:00.757Z,100014.92
2023-04-11T01:13:35.978Z,100009.07
2023-04-11T01:16:07.274Z,100009.79
2023-04-11T01:18:38.632Z,100015.90
2023-04-11T01:21:12.275Z,100022.29
2023-04-11T01:23:42.878Z,100031.68
2023-04-11T01:26:13.626Z,100044.69
2023-04-11T01:28:54.034Z,100044.04
2023-04-11T01:31:24.781Z,100054.82
2023-04-11T01:33:57.819Z,100069.36
2023-04-11T01:36:32.290Z,100081.94
2023-04-11T01:39:02.913Z,100080.41
2023-04-11T01:41:35.091Z,100070.98
2023-04-11T01:44:06.161Z,100073.55
2023-04-11T01:46:40.126Z,100075.73
2023-04-11T01:49:10.836Z,100079.19
2023-04-11T01:51:44.337Z,100084.52
2023-04-11T01:54:17.549Z,100083.70
2023-04-11T01:56:48.366Z,100092.26
2023-04-11T01:59:19.581Z,100095.52
2023-04-11T02:01:56.004Z,100091.54
2023-04-11T02:04:28.066Z,100078.83
2023-04-11T02:07:01.476Z,100076.63
2023-04-11T02:09:32.134Z,100072.14
2023-04-11T02:12:05.884Z,100067.31
2023-04-11T02:14:56.548Z,100069.65
2023-04-11T02:17:34.347Z,100063.50
2023-04-11T02:20:07.045Z,100061.06
2023-04-11T02:22:37.475Z,100080.31
2023-04-11T02:25:28.268Z,100088.48
2023-04-11T02:27:58.971Z,100087.77
2023-04-11T02:30:51.089Z,100086.39
2023-04-11T02:33:32.782Z,100090.07
2023-04-11T02:36:06.497Z,100092.52
2023-04-11T02:38:45.778Z,100089.52
2023-04-11T02:41:19.430Z,100082.01
2023-04-11T02:43:59.446Z,100091.58
2023-04-11T02:46:43.131Z,100096.84
2023-04-11T02:49:12.785Z,100091.73
2023-04-11T02:51:43.670Z,100097.86
2023-04-11T02:54:16.803Z,100107.55
2023-04-11T02:56:52.772Z,100100.27
2023-04-11T02:59:36.221Z,100101.20
2023-04-11T03:02:07.167Z,100107.55
2023-04-11T03:04:37.940Z,100112.09
2023-04-11T03:07:14.512Z,100117.72
2023-04-11T03:09:45.769Z,100125.18
2023-04-11T03:12:16.302Z,100130.16
2023-04-11T03:14:54.963Z,100130.89
2023-04-11T03:17:45.771Z,100128.98
2023-04-11T03:20:19.570Z,100126.54
2023-04-11T03:23:02.249Z,100118.21
2023-04-11T03:25:37.747Z,100120.23
2023-04-11T03:28:08.961Z,100129.90
2023-04-11T03:30:48.913Z,100135.41
2023-04-11T03:33:22.645Z,100132.61
2023-04-11T03:35:56.389Z,100126.54
2023-04-11T03:38:27.290Z,100125.32
2023-04-11T03:41:01.150Z,100118.58
2023-04-11T03:43:51.866Z,100122.65
2023-04-11T03:46:21.845Z,100126.33
2023-04-11T03:48:55.763Z,100129.95
2023-04-11T03:51:27.711Z,100123.09
2023-04-11T03:54:06.271Z,100123.31
2023-04-11T03:56:39.773Z,100132.13
2023-04-11T03:59:13.129Z,100133.23
2023-04-11T04:02:08.366Z,100143.88
2023-04-11T04:04:43.517Z,100152.40
2023-04-11T04:07:24.113Z,100151.98
2023-04-11T04:09:57.718Z,100142.28
2023-04-11T04:12:38.344Z,100134.58
2023-04-11T04:15:15.041Z,100115.85
2023-04-11T04:17:48.556Z,100112.22
2023-04-11T04:20:34.859Z,100116.67
2023-04-11T04:23:08.296Z,100116.58
2023-04-11T04:25:52.590Z,100123.66
2023-04-11T04:28:46.096Z,100128.45
2023-04-11T04:31:22.325Z,100115.09
2023-04-11T04:33:53.382Z,100085.01
2023-04-11T04:36:28.605Z,100078.89
2023-04-11T04:39:10.681Z,100090.69
2023-04-11T04:41:43.381Z,100096.33
2023-04-11T04:44:17.458Z,100103.92
2023-04-11T04:47:00.366Z,100118.86
2023-04-11T04:49:34.154Z,100126.06
2023-04-11T04:52:27.301Z,100140.61
2023-04-11T04:54:59.293Z,100148.98
2023-04-11T04:57:49.979Z,100136.48
2023-04-11T05:00:26.111Z,100125.64
2023-04-11T05:03:00.218Z,100129.16
2023-04-11T05:05:34.351Z,100132.48
2023-04-11T05:08:25.965Z,100147.40
2023-04-11T05:10:59.511Z,100149.52
2023-04-11T05:13:34.812Z,100150.89
2023-04-11T05:16:17.739Z,100156.64
2023-04-11T05:18:58.351Z,100166.98
2023-04-11T05:21:49.100Z,100174.08
2023-04-11T05:24:22.145Z,100186.86
2023-04-11T05:27:13.456Z,100181.19
2023-04-11T05:29:46.862Z,100177.47
2023-04-11T05:32:26.663Z,100186.02
2023-04-11T05:35:09.085Z,100191.01
2023-04-11T05:37:58.274Z,100193.22
2023-04-11T05:40:33.681Z,100194.55
2023-04-11T05:43:06.991Z,100195.02
2023-04-11T05:45:45.507Z,100199.84
2023-04-11T05:48:26.083Z,100204.84
2023-04-11T05:50:57.083Z,100202.50
2023-04-11T05:53:44.194Z,100205.26
2023-04-11T05:56:23.833Z,100206.90
2023-04-11T05:58:54.385Z,100210.68
2023-04-11T06:01:26.369Z,100217.78
2023-04-11T06:03:57.727Z,100217.55
2023-04-11T06:06:28.730Z,100217.33
2023-04-11T06:08:59.141Z,100222.27
2023-04-11T06:11:32.047Z,100230.88
2023-04-11T06:14:02.648Z,100248.90
2023-04-11T06:16:38.911Z,100253.34
2023-04-11T06:19:09.952Z,100247.80
2023-04-11T06:21:42.703Z,100245.58
2023-04-11T06:24:19.150Z,100255.85
2023-04-11T06:26:50.672Z,100260.77
2023-04-11T06:29:43.654Z,100257.70
2023-04-11T06:32:16.758Z,100252.69
2023-04-11T06:34:52.382Z,100258.84
2023-04-11T06:37:26.329Z,100265.83
2023-04-11T06:39:59.614Z,100274.76
2023-04-11T06:42:33.052Z,100273.86
2023-04-11T06:45:15.483Z,100274.84
2023-04-11T06:47:44.539Z,100279.44
2023-04-11T06:50:28.153Z,100284.61
2023-04-11T06:52:58.977Z,100289.91
2023-04-11T06:55:29.600Z,100295.31
2023-04-11T06:58:03.119Z,100300.33
2023-04-11T07:00:42.087Z,100304.11
2023-04-11T07:03:15.756Z,100308.20
2023-04-11T07:05:50.700Z,100311.45
2023-04-11T07:08:24.354Z,100312.91
2023-04-11T07:10:55.091Z,100315.81
2023-04-11T07:13:35.994Z,100332.48
2023-04-11T07:16:07.466Z,100333.10
2023-04-11T07:18:40.833Z,100322.15
2023-04-11T07:21:14.402Z,100327.17
2023-04-11T07:23:52.671Z,100332.08
2023-04-11T07:26:27.079Z,100337.09
2023-04-11T07:28:59.164Z,100333.74
2023-04-11T07:31:29.880Z,100333.06
2023-04-11T07:34:00.712Z,100333.06
2023-04-11T07:36:31.596Z,100337.41
2023-04-11T07:39:09.458Z,100340.50
2023-04-11T07:41:40.814Z,100333.98
2023-04-11T07:44:35.033Z,100329.98
2023-04-11T07:47:16.931Z,100333.27
2023-04-11T07:50:09.077Z,100337.17
2023-04-11T07:52:39.678Z,100341.71
2023-04-11T07:55:14.181Z,100337.05
2023-04-11T07:57:44.709Z,100339.48
2023-04-11T08:00:47.994Z,100341.67
2023-04-11T08:03:17.703Z,100330.25
2023-04-11T08:05:49.886Z,100339.43
2023-04-11T08:08:31.355Z,100339.70
2023-04-11T08:11:24.890Z,100342.32
2023-04-11T08:13:55.780Z,100346.76
2023-04-11T08:16:49.120Z,100342.35
2023-04-11T08:19:25.818Z,100340.49
2023-04-11T08:22:16.479Z,100337.66
2023-04-11T08:24:47.196Z,100336.29
2023-04-11T08:27:45.360Z,100340.78
2023-04-11T08:30:20.308Z,100339.09
2023-04-11T08:32:51.113Z,100345.69
2023-04-11T08:35:24.748Z,100345.85
2023-04-11T08:37:57.641Z,100344.94
2023-04-11T08:40:28.982Z,100341.14
2023-04-11T08:43:12.406Z,100337.13
2023-04-11T08:45:43.657Z,100337.20
2023-04-11T08:48:25.470Z,100346.19
2023-04-11T08:50:58.624Z,100342.67
2023-04-11T08:53:30.445Z,100347.70
2023-04-11T08:56:00.915Z,100350.02
2023-04-11T08:58:32.447Z,100350.32
2023-04-11T09:01:32.179Z,100346.65
2023-04-11T09:04:12.770Z,100343.45
2023-04-11T09:07:00.537Z,100346.47
2023-04-11T09:09:32.443Z,100346.98
2023-04-11T09:12:03.617Z,100346.25
2023-04-11T09:14:42.122Z,100343.46
2023-04-11T09:17:14.439Z,100342.71
2023-04-11T09:19:47.549Z,100345.20
2023-04-11T09:22:19.448Z,100340.64
2023-04-11T09:25:04.649Z,100336.23
2023-04-11T09:27:35.434Z,100342.92
2023-04-11T09:30:06.898Z,100339.02
2023-04-11T09:32:37.565Z,100337.23
2023-04-11T09:35:15.589Z,100332.77
2023-04-11T09:37:48.487Z,100337.59
2023-04-11T09:40:20.519Z,100340.22
2023-04-11T09:42:57.657Z,100342.66
2023-04-11T09:45:29.322Z,100356.99
2023-04-11T09:48:02.377Z,100375.48
2023-04-11T09:50:34.207Z,100388.44
2023-04-11T09:53:06.937Z,100402.53
2023-04-11T09:55:41.165Z,100399.21
2023-04-11T09:58:23.600Z,100400.09
2023-04-11T10:00:55.248Z,100396.81
2023-04-11T10:03:27.698Z,100392.27
2023-04-11T10:05:59.167Z,100390.73
2023-04-11T10:09:11.419Z,100387.88
2023-04-11T10:11:46.548Z,100388.14
2023-04-11T10:14:47.174Z,100388.76
2023-04-11T10:17:28.102Z,100389.56
2023-04-11T10:20:24.478Z,100391.83
2023-04-11T10:23:05.174Z,100393.38
2023-04-11T10:25:51.615Z,100387.48
2023-04-11T10:28:39.239Z,100383.01
2023-04-11T10:31:14.238Z,100387.15
2023-04-11T10:34:15.262Z,100390.19
2023-04-11T10:37:06.265Z,100391.98
2023-04-11T10:40:10.393Z,100391.20
2023-04-11T10:42:45.634Z,100383.21
2023-04-11T10:45:25.030Z,100381.81
2023-04-11T10:48:08.042Z,100373.73
2023-04-11T10:50:42.191Z,100366.45
2023-04-11T10:53:36.414Z,100361.27
2023-04-11T10:56:07.744Z,100358.63
2023-04-11T10:58:38.772Z,100360.34
2023-04-11T11:01:31.497Z,100359.65
2023-04-11T11:04:09.264Z,100374.39
2023-04-11T11:06:47.233Z,100374.73
2023-04-11T11:09:26.528Z,100357.75
2023-04-11T11:12:10.163Z,100358.20
2023-04-11T11:14:42.782Z,100353.44
2023-04-11T11:17:15.639Z,100343.84
2023-04-11T11:19:48.461Z,100344.88
2023-04-11T11:22:25.554Z,100341.67
2023-04-11T11:25:08.191Z,100345.36
2023-04-11T11:27:38.628Z,100324.40
2023-04-11T11:30:15.769Z,100333.05
2023-04-11T11:32:46.123Z,100325.23
2023-04-11T11:35:16.676Z,100323.93
2023-04-11T11:37:47.474Z,100324.17
2023-04-11T11:40:19.223Z,100321.23
2023-04-11T11:42:50.973Z,100319.73
2023-04-11T11:45:23.363Z,100327.13
2023-04-11T11:47:53.695Z,100323.81
2023-04-11T11:50:29.815Z,100326.41
2023-04-11T11:53:14.984Z,100331.31
2023-04-11T11:55:48.332Z,100338.75
2023-04-11T11:58:19.801Z,100338.84
2023-04-11T12:00:52.843Z,100340.27
2023-04-11T12:03:29.914Z,100346.09
2023-04-11T12:06:00.983Z,100346.90
2023-04-11T12:08:45.664Z,100349.66
2023-04-11T12:11:18.694Z,100346.74
2023-04-11T12:13:55.076Z,100350.54
2023-04-11T12:16:26.883Z,100342.52
2023-04-11T12:19:06.033Z,100341.48
2023-04-11T12:21:37.222Z,100343.59
2023-04-11T12:24:11.236Z,100335.37
2023-04-11T12:29:32.676Z,100320.53
2023-04-11T12:32:04.014Z,100318.00
2023-04-11T12:34:34.587Z,100315.60
2023-04-11T12:37:05.089Z,100321.54
2023-04-11T12:39:35.510Z,100308.17
2023-04-11T12:42:06.599Z,100303.83
2023-04-11T12:44:36.084Z,100315.39
2023-04-11T12:47:07.013Z,100315.58
2023-04-11T12:49:37.795Z,100312.88
2023-04-11T12:52:09.157Z,100316.31
2023-04-11T12:54:39.691Z,100316.65
2023-04-11T12:57:12.466Z,100317.34
2023-04-11T12:59:43.119Z,100320.13
2023-04-11T13:02:13.942Z,100316.84
2023-04-11T13:04:44.990Z,100315.00
2023-04-11T13:07:15.585Z,100311.67
2023-04-11T13:09:46.227Z,100313.13
2023-04-11T13:12:16.875Z,100314.75
2023-04-11T13:14:47.362Z,100315.66
2023-04-11T13:17:17.828Z,100311.05
2023-04-11T13:19:48.247Z,100309.55
2023-04-11T13:22:19.013Z,100305.41
2023-04-11T13:24:49.614Z,100304.98
2023-04-11T13:27:20.216Z,100306.35
2023-04-11T13:29:50.771Z,100301.23
2023-04-11T13:32:21.468Z,100292.16
2023-04-11T13:34:52.300Z,100289.70
2023-04-11T13:37:23.171Z,100292.57
2023-04-11T13:39:53.694Z,100292.98
2023-04-11T13:42:24.130Z,100299.45
2023-04-11T13:44:54.544Z,100302.48
2023-04-11T13:47:25.069Z,100297.85
2023-04-11T13:49:55.659Z,100294.75
2023-04-11T13:52:26.149Z,100292.17
2023-04-11T13:54:56.428Z,100298.14
2023-04-11T13:57:28.508Z,100302.09
2023-04-11T13:59:59.228Z,100305.98
2023-04-11T14:02:30.013Z,100302.96
2023-04-11T14:05:01.079Z,100301.90
2023-04-11T14:07:31.951Z,100296.08
2023-04-11T14:10:02.456Z,100295.83
2023-04-11T14:12:35.642Z,100294.70
2023-04-11T14:15:07.749Z,100290.15
2023-04-11T14:17:38.462Z,100294.44
2023-04-11T14:20:11.808Z,100293.01
2023-04-11T14:22:43.670Z,100296.36
2023-04-11T14:25:15.734Z,100292.98
2023-04-11T14:27:46.224Z,100290.59
2023-04-11T14:30:17.083Z,100286.34
2023-04-11T14:32:47.756Z,100283.61
2023-04-11T14:35:18.401Z,100278.73
2023-04-11T14:37:49.714Z,100281.61
2023-04-11T14:40:20.648Z,100278.30
2023-04-11T14:42:53.568Z,100275.02
2023-04-11T14:45:24.153Z,100278.56
2023-04-11T14:47:54.964Z,100271.27
2023-04-11T14:50:27.006Z,100269.52
2023-04-11T14:52:58.653Z,100265.52
2023-04-11T14:55:31.788Z,100270.86
2023-04-11T14:58:02.916Z,100269.02
2023-04-11T15:00:33.696Z,100276.79
2023-04-11T15:03:04.742Z,100273.06
2023-04-11T15:05:35.268Z,100267.25
2023-04-11T15:08:06.044Z,100266.48
2023-04-11T15:10:36.869Z,100269.90
2023-04-11T15:13:09.112Z,100271.52
2023-04-11T15:15:39.959Z,100281.41
2023-04-11T15:18:25.430Z,100282.46
2023-04-11T15:20:56.937Z,100269.61
2023-04-11T15:23:27.735Z,100272.46
2023-04-11T15:25:59.949Z,100273.70
2023-04-11T15:28:35.966Z,100271.41
2023-04-11T15:31:09.119Z,100261.19
2023-04-11T15:33:39.940Z,100263.46
2023-04-11T15:36:11.644Z,100259.44
2023-04-11T15:38:42.182Z,100253.17
2023-04-11T15:41:13.144Z,100257.54
2023-04-11T15:43:43.973Z,100257.48
2023-04-11T15:46:14.588Z,100259.65
2023-04-11T15:48:45.185Z,100259.83
2023-04-11T15:51:17.382Z,100258.02
2023-04-11T15:53:48.394Z,100257.42
2023-04-11T15:56:19.943Z,100259.52
2023-04-11T15:58:51.730Z,100254.77
2023-04-11T16:01:40.472Z,100258.07
2023-04-11T16:04:12.015Z,100256.46
2023-04-11T16:06:42.750Z,100255.91
2023-04-11T16:09:13.330Z,100252.52
2023-04-11T16:11:43.660Z,100246.92
2023-04-11T16:14:14.335Z,100249.31
2023-04-11T16:16:47.585Z,100249.52
2023-04-11T16:19:18.265Z,100252.08
2023-04-11T16:21:49.104Z,100250.14
2023-04-11T16:24:19.897Z,100246.80
2023-04-11T16:26:50.343Z,100242.25
2023-04-11T16:29:20.940Z,100249.08
2023-04-11T16:31:51.621Z,100249.85
2023-04-11T16:34:22.233Z,100252.39
2023-04-11T16:36:53.001Z,100245.89
2023-04-11T16:39:23.725Z,100247.30
2023-04-11T16:41:55.919Z,100241.73
2023-04-11T16:44:34.772Z,100241.10
2023-04-11T16:47:05.862Z,100241.20
2023-04-11T16:49:36.962Z,100241.33
2023-04-11T16:52:11.902Z,100242.33
2023-04-11T16:54:42.311Z,100238.41
2023-04-11T16:57:13.171Z,100232.12
2023-04-11T16:59:43.874Z,100233.39
2023-04-11T17:02:14.414Z,100235.17
2023-04-11T17:04:45.423Z,100230.53
2023-04-11T17:07:16.251Z,100219.67
2023-04-11T17:09:49.920Z,100218.11
2023-04-11T17:12:21.089Z,100217.23
2023-04-11T17:14:55.960Z,100216.77
2023-04-11T17:17:26.636Z,100219.64
2023-04-11T17:19:59.670Z,100214.48
2023-04-11T17:22:30.462Z,100214.89
2023-04-11T17:25:00.924Z,100215.07
2023-04-11T17:27:31.542Z,100216.90
2023-04-11T17:30:02.265Z,100212.81
2023-04-11T17:32:32.936Z,100215.02
2023-04-11T17:35:04.437Z,100219.52
2023-04-11T17:37:37.826Z,100219.19
2023-04-11T17:40:14.331Z,100221.63
2023-04-11T17:42:45.816Z,100220.52
2023-04-11T17:45:18.530Z,100222.25
2023-04-11T17:48:00.131Z,100224.27
2023-04-11T17:50:29.629Z,100231.53
2023-04-11T17:53:00.621Z,100232.01
2023-04-11T17:55:31.744Z,100226.94
2023-04-11T17:58:05.856Z,100227.64
2023-04-11T18:00:57.330Z,100225.28
2023-04-11T18:03:28.651Z,100225.52
2023-04-11T18:06:11.398Z,100231.71
2023-04-11T18:08:51.145Z,100232.10
2023-04-11T18:11:22.356Z,100235.46
2023-04-11T18:13:52.826Z,100234.54
2023-04-11T18:16:23.840Z,100237.00
2023-04-11T18:18:54.542Z,100235.55
2023-04-11T18:21:25.034Z,100236.06
2023-04-11T18:24:15.789Z,100235.42
2023-04-11T18:26:47.089Z,100235.47
2023-04-11T18:29:16.095Z,100240.94
2023-04-11T18:31:46.672Z,100241.10
2023-04-11T18:34:19.781Z,100245.33
2023-04-11T18:36:51.236Z,100245.86
2023-04-11T18:39:42.641Z,100247.59
2023-04-11T18:42:15.720Z,100245.91
2023-04-11T18:44:46.736Z,100248.19
2023-04-11T18:47:19.801Z,100244.70
2023-04-11T18:49:50.455Z,100240.45
2023-04-11T18:52:20.993Z,100241.69
2023-04-11T18:54:51.550Z,100237.89
2023-04-11T18:57:21.959Z,100240.48
2023-04-11T19:00:04.250Z,100246.38
2023-04-11T19:02:35.696Z,100251.17
2023-04-11T19:05:13.696Z,100252.25
2023-04-11T19:07:45.783Z,100250.70
2023-04-11T19:10:27.458Z,100251.90
2023-04-11T19:12:58.079Z,100244.88
2023-04-11T19:15:28.976Z,100244.13
2023-04-11T19:18:00.836Z,100244.67
2023-04-11T19:20:36.547Z,100240.24
2023-04-11T19:23:11.746Z,100236.07
2023-04-11T19:25:42.884Z,100230.31
2023-04-11T19:28:13.572Z,100229.79
2023-04-11T19:30:44.259Z,100232.33
2023-04-11T19:33:14.829Z,100227.20
2023-04-11T19:35:52.878Z,100225.91
2023-04-11T19:38:34.799Z,100225.65
2023-04-11T19:41:14.862Z,100223.52
2023-04-11T19:43:46.000Z,100217.48
2023-04-11T19:46:18.215Z,100214.93
2023-04-11T19:48:51.673Z,100214.44
2023-04-11T19:51:22.298Z,100214.91
2023-04-11T19:53:52.953Z,100216.45
2023-04-11T19:56:23.839Z,100213.43
2023-04-11T19:58:54.305Z,100204.08
2023-04-11T20:01:25.117Z,100202.95
2023-04-11T20:03:58.433Z,100202.91
2023-04-11T20:06:35.000Z,100204.13
2023-04-11T20:09:08.700Z,100195.66
2023-04-11T20:11:39.289Z,100193.27
2023-04-11T20:14:10.229Z,100194.98
2023-04-11T20:16:44.072Z,100194.36
2023-04-11T20:19:15.141Z,100186.11
2023-04-11T20:21:46.727Z,100185.79
2023-04-11T20:24:17.615Z,100187.28
2023-04-11T20:26:48.350Z,100185.52
2023-04-11T20:29:21.302Z,100179.39
2023-04-11T20:31:51.847Z,100175.52
2023-04-11T20:34:22.498Z,100175.40
2023-04-11T20:36:53.341Z,100173.28
2023-04-11T20:39:24.022Z,100168.61
2023-04-11T20:41:56.629Z,100161.80
2023-04-11T20:44:27.684Z,100152.96
2023-04-11T20:46:58.302Z,100147.38
2023-04-11T20:49:31.797Z,100146.77
2023-04-11T20:52:02.687Z,100142.29
2023-04-11T20:54:33.638Z,100138.10
2023-04-11T20:57:04.828Z,100134.27
2023-04-11T20:59:35.586Z,100130.73
2023-04-11T21:02:06.418Z,100132.37
2023-04-11T21:04:37.304Z,100131.89
2023-04-11T21:07:15.834Z,100123.66
2023-04-11T21:10:08.471Z,100117.02
2023-04-11T21:12:39.425Z,100118.47
2023-04-11T21:15:12.000Z,100112.30
2023-04-11T21:17:42.655Z,100104.58
2023-04-11T21:20:19.453Z,100104.20
2023-04-11T21:22:52.991Z,100097.89
2023-04-11T21:25:24.390Z,100095.25
2023-04-11T21:27:53.547Z,100088.68
2023-04-11T21:30:27.123Z,100088.30
2023-04-11T21:32:57.730Z,100082.98
2023-04-11T21:35:31.251Z,100080.45
2023-04-11T21:38:01.807Z,100077.27
2023-04-11T21:40:32.537Z,100075.64
2023-04-11T21:43:03.274Z,100073.45
2023-04-11T21:45:34.106Z,100072.19
2023-04-11T21:48:05.185Z,100067.52
2023-04-11T21:50:36.777Z,100062.88
2023-04-11T21:53:07.444Z,100059.62
2023-04-11T21:55:38.199Z,100052.85
2023-04-11T21:58:28.696Z,100050.73
2023-04-11T22:01:03.748Z,100051.64
2023-04-11T22:03:33.255Z,100048.66
2023-04-11T22:06:04.036Z,100046.15
2023-04-11T22:08:38.412Z,100043.86
2023-04-11T22:11:10.526Z,100030.52
2023-04-11T22:13:40.926Z,100032.44
2023-04-11T22:16:14.171Z,100030.50
2023-04-11T22:18:48.991Z,100031.50
2023-04-11T22:21:21.045Z,100026.06
2023-04-11T22:23:54.363Z,100021.67
2023-04-11T22:26:29.489Z,100018.82
2023-04-11T22:29:02.766Z,100013.55
2023-04-11T22:31:38.482Z,100005.67
2023-04-11T22:34:09.517Z,100000.48
2023-04-11T22:36:40.107Z,99997.01
2023-04-11T22:39:10.848Z,99989.67
2023-04-11T22:41:41.467Z,99991.80
2023-04-11T22:44:12.008Z,99987.75
2023-04-11T22:47:06.760Z,99990.75
2023-04-11T22:49:46.093Z,99988.33
2023-04-11T22:52:19.055Z,99985.14
2023-04-11T22:54:49.692Z,99980.58
2023-04-11T22:57:20.154Z,99977.23
2023-04-11T22:59:50.670Z,99974.09
2023-04-11T23:02:21.397Z,99975.33
2023-04-11T23:04:52.175Z,99969.04
2023-04-11T23:07:33.309Z,99959.75
2023-04-11T23:10:06.023Z,99956.79
2023-04-11T23:12:37.151Z,99951.55
2023-04-11T23:15:09.765Z,99948.66
2023-04-11T23:17:40.299Z,99939.54
2023-04-11T23:20:22.257Z,99942.37
2023-04-11T23:22:52.752Z,99936.23
2023-04-11T23:25:25.643Z,99930.48
2023-04-11T23:27:56.147Z,99929.63
2023-04-11T23:30:26.908Z,99928.73
2023-04-11T23:32:57.441Z,99925.55
2023-04-11T23:35:31.629Z,99923.05
2023-04-11T23:38:02.854Z,99916.86
2023-04-11T23:40:33.538Z,99916.04
2023-04-11T23:43:04.199Z,99909.40
2023-04-11T23:45:35.542Z,99902.95
2023-04-11T23:48:08.974Z,99904.20
2023-04-11T23:50:52.706Z,99900.30
2023-04-11T23:53:23.250Z,99900.94
2023-04-11T23:55:54.278Z,99902.92
2023-04-11T23:58:24.651Z,99905.04
